createdAt,value
2019-06-26T00:00:07.695Z,99272.10
2019-06-26T00:03:22.909Z,99273.64
2019-06-26T00:06:38.256Z,99277.78
2019-06-26T00:09:53.346Z,99281.09
2019-06-26T00:13:08.532Z,99275.67
2019-06-26T00:16:23.105Z,99276.78
2019-06-26T00:19:40.060Z,99277.01
2019-06-26T00:22:55.018Z,99280.73
2019-06-26T00:26:11.101Z,99285.67
2019-06-26T00:29:25.770Z,99290.01
2019-06-26T00:32:40.692Z,99290.89
2019-06-26T00:35:56.347Z,99288.16
2019-06-26T00:39:11.708Z,99289.73
2019-06-26T00:42:26.720Z,99285.91
2019-06-26T00:45:42.538Z,99284.37
2019-06-26T00:49:00.265Z,99288.77
2019-06-26T00:52:15.243Z,99289.53
2019-06-26T00:55:30.652Z,99287.96
2019-06-26T00:58:45.923Z,99284.98
2019-06-26T01:02:00.790Z,99283.09
2019-06-26T01:05:16.745Z,99284.73
2019-06-26T01:08:31.972Z,99281.78
2019-06-26T01:11:46.842Z,99283.63
2019-06-26T01:15:01.587Z,99281.78
2019-06-26T01:18:17.205Z,99284.86
2019-06-26T01:21:32.199Z,99289.27
2019-06-26T01:25:05.381Z,99286.84
2019-06-26T01:28:20.571Z,99288.98
2019-06-26T01:31:35.684Z,99286.84
2019-06-26T01:34:50.730Z,99284.19
2019-06-26T01:38:05.828Z,99285.75
2019-06-26T01:41:20.784Z,99289.66
2019-06-26T01:44:35.604Z,99286.09
2019-06-26T01:47:50.839Z,99287.81
2019-06-26T01:51:13.522Z,99286.22
2019-06-26T01:54:29.770Z,99288.62
2019-06-26T01:57:45.294Z,99287.61
2019-06-26T02:01:00.149Z,99285.09
2019-06-26T02:04:15.780Z,99290.64
2019-06-26T02:07:30.790Z,99292.28
2019-06-26T02:10:46.453Z,99287.32
2019-06-26T02:14:01.469Z,99288.75
2019-06-26T02:17:17.659Z,99293.50
2019-06-26T02:20:33.086Z,99283.75
2019-06-26T02:23:49.134Z,99284.92
2019-06-26T02:27:03.962Z,99299.84
2019-06-26T02:30:19.192Z,99304.45
2019-06-26T02:33:35.204Z,99304.24
2019-06-26T02:36:51.307Z,99305.88
2019-06-26T02:40:07.085Z,99300.13
2019-06-26T02:43:22.254Z,99302.17
2019-06-26T02:46:37.695Z,99307.22
2019-06-26T02:49:53.473Z,99303.89
2019-06-26T02:53:08.409Z,99310.66
2019-06-26T02:56:24.557Z,99315.73
2019-06-26T02:59:40.839Z,99321.13
2019-06-26T03:02:56.934Z,99315.95
2019-06-26T03:06:11.816Z,99314.37
2019-06-26T03:09:27.106Z,99316.16
2019-06-26T03:12:42.050Z,99319.27
2019-06-26T03:15:57.575Z,99327.72
2019-06-26T03:19:12.904Z,99327.86
2019-06-26T03:22:29.159Z,99330.55
2019-06-26T03:25:44.487Z,99333.39
2019-06-26T03:28:59.561Z,99334.56
2019-06-26T03:32:14.631Z,99339.77
2019-06-26T03:35:29.735Z,99344.47
2019-06-26T03:38:45.913Z,99338.29
2019-06-26T03:42:00.604Z,99343.50
2019-06-26T03:45:25.717Z,99340.98
2019-06-26T03:48:33.741Z,99347.08
2019-06-26T03:51:51.200Z,99351.26
2019-06-26T03:55:07.054Z,99352.00
2019-06-26T03:58:23.122Z,99345.49
2019-06-26T04:01:39.119Z,99351.17
2019-06-26T04:04:55.002Z,99354.28
2019-06-26T04:08:09.949Z,99354.28
2019-06-26T04:11:25.620Z,99362.89
2019-06-26T04:14:43.105Z,99360.94
2019-06-26T04:17:58.588Z,99361.45
2019-06-26T04:21:13.312Z,99365.02
2019-06-26T04:24:28.254Z,99366.94
2019-06-26T04:27:43.497Z,99373.95
2019-06-26T04:30:58.651Z,99366.55
2019-06-26T04:34:13.803Z,99374.75
2019-06-26T04:37:28.625Z,99381.11
2019-06-26T04:40:43.616Z,99384.73
2019-06-26T04:43:58.870Z,99391.67
2019-06-26T04:47:14.511Z,99391.34
2019-06-26T04:50:29.233Z,99385.47
2019-06-26T04:53:44.219Z,99385.28
2019-06-26T04:56:59.553Z,99389.98
2019-06-26T05:00:15.397Z,99390.34
2019-06-26T05:03:31.344Z,99391.57
2019-06-26T05:06:46.531Z,99386.50
2019-06-26T05:10:01.386Z,99389.91
2019-06-26T05:16:49.062Z,99391.27
2019-06-26T05:20:05.522Z,99394.34
2019-06-26T05:23:21.642Z,99393.47
2019-06-26T05:26:37.709Z,99390.49
2019-06-26T05:29:54.588Z,99396.27
2019-06-26T05:33:10.557Z,99394.97
2019-06-26T05:36:26.956Z,99401.69
2019-06-26T05:39:42.438Z,99400.46
2019-06-26T05:42:57.941Z,99394.59
2019-06-26T05:46:12.663Z,99398.11
2019-06-26T05:49:30.615Z,99400.41
2019-06-26T05:52:45.464Z,99405.34
2019-06-26T05:56:00.395Z,99398.98
2019-06-26T05:59:15.323Z,99399.67
2019-06-26T06:02:30.435Z,99402.92
2019-06-26T06:05:45.922Z,99405.33
2019-06-26T06:09:02.355Z,99411.69
2019-06-26T06:12:17.985Z,99400.19
2019-06-26T06:15:33.447Z,99408.81
2019-06-26T06:18:48.772Z,99406.89
2019-06-26T06:22:03.633Z,99404.50
2019-06-26T06:25:18.983Z,99397.77
2019-06-26T06:28:35.766Z,99407.69
2019-06-26T06:31:51.337Z,99406.66
2019-06-26T06:35:06.691Z,99404.02
2019-06-26T06:38:22.599Z,99413.87
2019-06-26T06:41:37.808Z,99417.58
2019-06-26T06:44:53.188Z,99416.92
2019-06-26T06:48:08.143Z,99424.25
2019-06-26T06:51:23.168Z,99423.25
2019-06-26T06:54:38.083Z,99419.14
2019-06-26T06:57:53.049Z,99423.66
2019-06-26T07:01:08.350Z,99422.94
2019-06-26T07:04:23.772Z,99427.41
2019-06-26T07:07:41.274Z,99426.67
2019-06-26T07:10:57.106Z,99432.16
2019-06-26T07:14:11.619Z,99435.42
2019-06-26T07:17:26.460Z,99442.45
2019-06-26T07:20:44.461Z,99443.34
2019-06-26T07:23:58.230Z,99444.30
2019-06-26T07:27:13.290Z,99438.45
2019-06-26T07:30:28.773Z,99430.78
2019-06-26T07:33:43.898Z,99430.78
2019-06-26T07:36:59.194Z,99433.70
2019-06-26T07:40:14.491Z,99447.39
2019-06-26T07:43:30.442Z,99443.17
2019-06-26T07:46:46.871Z,99447.31
2019-06-26T07:50:02.134Z,99440.78
2019-06-26T07:53:16.844Z,99453.98
2019-06-26T07:56:31.912Z,99450.67
2019-06-26T07:59:47.909Z,99446.97
2019-06-26T08:03:04.531Z,99443.72
2019-06-26T08:06:19.803Z,99443.95
2019-06-26T08:09:34.849Z,99447.11
2019-06-26T08:12:49.723Z,99451.40
2019-06-26T08:16:06.280Z,99451.91
2019-06-26T08:19:22.430Z,99447.53
2019-06-26T08:22:37.314Z,99456.42
2019-06-26T08:25:52.229Z,99449.50
2019-06-26T08:29:07.612Z,99453.19
2019-06-26T08:32:25.846Z,99461.25
2019-06-26T08:35:39.651Z,99463.98
2019-06-26T08:38:55.978Z,99455.67
2019-06-26T08:42:12.318Z,99452.20
2019-06-26T08:45:27.041Z,99458.39
2019-06-26T08:48:42.174Z,99450.94
2019-06-26T08:51:58.142Z,99453.73
2019-06-26T08:55:14.051Z,99444.55
2019-06-26T08:58:29.908Z,99453.52
2019-06-26T09:01:45.206Z,99437.67
2019-06-26T09:05:01.479Z,99435.05
2019-06-26T09:08:17.139Z,99439.06
2019-06-26T09:20:02.660Z,99430.33
2019-06-26T09:26:44.342Z,99438.33
2019-06-26T09:29:59.989Z,99442.30
2019-06-26T09:33:15.862Z,99441.42
2019-06-26T09:36:31.025Z,99446.31
2019-06-26T09:39:47.070Z,99448.06
2019-06-26T09:43:03.273Z,99446.30
2019-06-26T09:46:18.757Z,99455.59
2019-06-26T09:49:35.013Z,99447.11
2019-06-26T09:52:50.693Z,99454.20
2019-06-26T09:56:06.738Z,99460.41
2019-06-26T09:59:22.611Z,99461.29
2019-06-26T10:02:37.827Z,99460.80
2019-06-26T10:05:55.568Z,99458.61
2019-06-26T10:09:10.662Z,99465.27
2019-06-26T10:12:26.178Z,99462.20
2019-06-26T10:16:00.776Z,99465.68
2019-06-26T10:19:16.437Z,99462.95
2019-06-26T10:22:32.289Z,99465.14
2019-06-26T10:25:47.711Z,99463.36
2019-06-26T10:29:02.788Z,99468.23
2019-06-26T10:32:19.130Z,99460.19
2019-06-26T10:35:35.608Z,99461.50
2019-06-26T10:38:50.627Z,99455.67
2019-06-26T10:42:07.441Z,99454.77
2019-06-26T10:45:23.132Z,99451.55
2019-06-26T10:48:37.918Z,99453.63
2019-06-26T10:51:54.163Z,99447.56
2019-06-26T10:55:10.034Z,99452.55
2019-06-26T10:58:27.435Z,99444.06
2019-06-26T11:01:42.736Z,99448.97
2019-06-26T11:05:05.456Z,99437.84
2019-06-26T11:08:20.665Z,99438.59
2019-06-26T11:11:35.752Z,99442.63
2019-06-26T11:14:51.022Z,99433.77
2019-06-26T11:18:05.676Z,99433.72
2019-06-26T11:21:21.479Z,99430.02
2019-06-26T11:24:37.412Z,99423.67
2019-06-26T11:27:53.618Z,99424.89
2019-06-26T11:31:09.690Z,99416.07
2019-06-26T11:34:25.650Z,99417.75
2019-06-26T11:37:40.487Z,99410.68
2019-06-26T11:40:55.724Z,99408.06
2019-06-26T11:44:11.496Z,99410.67
2019-06-26T11:47:27.796Z,99418.20
2019-06-26T11:50:43.137Z,99423.08
2019-06-26T11:53:59.126Z,99421.21
2019-06-26T11:57:15.542Z,99423.27
2019-06-26T12:00:30.958Z,99419.26
2019-06-26T12:03:46.452Z,99416.05
2019-06-26T12:07:03.051Z,99415.92
2019-06-26T12:10:18.860Z,99410.11
2019-06-26T12:16:49.870Z,99406.44
2019-06-26T12:20:17.807Z,99415.38
2019-06-26T12:23:23.411Z,99417.03
2019-06-26T12:26:39.233Z,99407.94
2019-06-26T12:29:54.693Z,99405.64
2019-06-26T12:33:10.319Z,99412.42
2019-06-26T12:36:25.549Z,99412.38
2019-06-26T12:39:40.965Z,99406.88
2019-06-26T12:42:56.042Z,99403.97
2019-06-26T12:46:11.181Z,99394.32
2019-06-26T12:49:26.380Z,99394.08
2019-06-26T12:52:41.474Z,99389.32
2019-06-26T12:55:57.340Z,99387.23
2019-06-26T12:59:13.808Z,99386.72
2019-06-26T13:02:28.880Z,99381.52
2019-06-26T13:05:45.304Z,99379.03
2019-06-26T13:09:02.793Z,99381.04
2019-06-26T13:12:18.547Z,99374.80
2019-06-26T13:15:45.716Z,99370.22
2019-06-26T13:19:06.520Z,99367.81
2019-06-26T13:22:24.111Z,99369.52
2019-06-26T13:25:40.088Z,99361.78
2019-06-26T13:28:54.948Z,99358.80
2019-06-26T13:32:11.276Z,99362.56
2019-06-26T13:35:26.593Z,99360.16
2019-06-26T13:38:41.843Z,99359.77
2019-06-26T13:41:57.542Z,99355.52
2019-06-26T13:45:13.239Z,99355.34
2019-06-26T13:48:29.505Z,99353.52
2019-06-26T13:51:45.553Z,99350.59
2019-06-26T13:58:37.378Z,99351.72
2019-06-26T14:01:53.470Z,99342.17
2019-06-26T14:05:09.219Z,99347.78
2019-06-26T14:08:24.250Z,99340.29
2019-06-26T14:11:39.615Z,99336.45
2019-06-26T14:14:57.693Z,99343.50
2019-06-26T14:18:12.778Z,99338.92
2019-06-26T14:21:28.132Z,99337.18
2019-06-26T14:24:42.999Z,99330.80
2019-06-26T14:28:09.941Z,99327.16
2019-06-26T14:31:23.344Z,99328.67
2019-06-26T14:34:39.248Z,99326.78
2019-06-26T14:37:54.133Z,99325.88
2019-06-26T14:41:09.962Z,99325.45
2019-06-26T14:44:25.023Z,99324.89
2019-06-26T14:47:39.933Z,99320.70
2019-06-26T14:50:55.586Z,99317.63
2019-06-26T14:54:10.602Z,99315.10
2019-06-26T14:57:26.145Z,99325.30
2019-06-26T15:00:43.848Z,99319.94
2019-06-26T15:03:59.771Z,99320.88
2019-06-26T15:07:15.256Z,99313.97
2019-06-26T15:10:30.639Z,99316.67
2019-06-26T15:14:06.887Z,99316.88
2019-06-26T15:20:57.728Z,99309.19
2019-06-26T15:24:13.039Z,99305.47
2019-06-26T15:27:30.886Z,99303.98
2019-06-26T15:30:47.020Z,99304.63
2019-06-26T15:34:02.265Z,99301.65
2019-06-26T15:37:26.214Z,99301.75
2019-06-26T15:40:41.104Z,99297.72
2019-06-26T15:44:03.774Z,99296.05
2019-06-26T15:47:20.431Z,99293.70
2019-06-26T15:50:36.159Z,99285.05
2019-06-26T15:53:51.142Z,99282.09
2019-06-26T15:57:06.907Z,99278.72
2019-06-26T16:00:22.746Z,99269.47
2019-06-26T16:03:41.245Z,99272.23
2019-06-26T16:06:59.616Z,99258.88
2019-06-26T16:10:14.858Z,99255.22
2019-06-26T16:13:36.734Z,99257.25
2019-06-26T16:16:53.326Z,99255.73
2019-06-26T16:20:09.854Z,99255.95
2019-06-26T16:23:24.894Z,99249.16
2019-06-26T16:26:40.445Z,99243.56
2019-06-26T16:29:55.683Z,99243.12
2019-06-26T16:33:12.028Z,99244.91
2019-06-26T16:36:30.710Z,99241.66
2019-06-26T16:39:45.562Z,99239.08
2019-06-26T16:43:01.023Z,99233.71
2019-06-26T16:46:16.569Z,99234.95
2019-06-26T16:49:31.820Z,99234.27
2019-06-26T16:52:49.604Z,99234.57
2019-06-26T16:56:04.826Z,99238.42
2019-06-26T16:59:19.691Z,99241.38
2019-06-26T17:02:35.189Z,99247.30
2019-06-26T17:05:50.788Z,99248.08
2019-06-26T17:09:06.229Z,99246.22
2019-06-26T17:12:21.821Z,99242.20
2019-06-26T17:15:37.836Z,99239.45
2019-06-26T17:18:52.792Z,99243.17
2019-06-26T17:22:07.861Z,99244.28
2019-06-26T17:25:22.609Z,99244.80
2019-06-26T17:28:37.452Z,99237.56
2019-06-26T17:31:52.369Z,99244.07
2019-06-26T17:35:07.650Z,99237.77
2019-06-26T17:38:23.404Z,99237.72
2019-06-26T17:41:40.014Z,99236.22
2019-06-26T17:44:56.031Z,99235.09
2019-06-26T17:48:12.700Z,99234.91
2019-06-26T17:51:27.975Z,99232.45
2019-06-26T17:54:43.955Z,99232.73
2019-06-26T17:57:58.955Z,99245.59
2019-06-26T18:01:14.570Z,99245.56
2019-06-26T18:04:30.728Z,99240.94
2019-06-26T18:07:48.665Z,99240.64
2019-06-26T18:11:05.241Z,99241.84
2019-06-26T18:14:20.192Z,99246.77
2019-06-26T18:17:35.223Z,99255.61
2019-06-26T18:20:50.349Z,99252.02
2019-06-26T18:24:06.037Z,99263.92
2019-06-26T18:27:20.890Z,99264.05
2019-06-26T18:30:37.055Z,99266.83
2019-06-26T18:33:53.655Z,99273.62
2019-06-26T18:37:09.073Z,99276.45
2019-06-26T18:40:23.789Z,99281.46
2019-06-26T18:43:39.325Z,99286.89
2019-06-26T18:46:54.065Z,99282.06
2019-06-26T18:50:10.719Z,99292.28
2019-06-26T18:53:26.877Z,99288.72
2019-06-26T18:56:42.198Z,99286.96
2019-06-26T18:59:57.265Z,99290.50
2019-06-26T19:03:12.544Z,99290.01
2019-06-26T19:06:28.009Z,99293.05
2019-06-26T19:09:42.672Z,99291.22
2019-06-26T19:12:58.310Z,99301.31
2019-06-26T19:16:14.471Z,99293.72
2019-06-26T19:19:29.719Z,99298.92
2019-06-26T19:22:47.594Z,99300.17
2019-06-26T19:26:02.974Z,99307.98
2019-06-26T19:29:18.219Z,99309.19
2019-06-26T19:32:33.027Z,99315.70
2019-06-26T19:35:49.813Z,99319.53
2019-06-26T19:39:05.329Z,99324.25
2019-06-26T19:42:20.484Z,99323.69
2019-06-26T19:45:36.497Z,99333.77
2019-06-26T19:48:51.510Z,99331.03
2019-06-26T19:52:06.877Z,99340.11
2019-06-26T19:55:22.533Z,99339.06
2019-06-26T19:58:37.446Z,99343.23
2019-06-26T20:01:52.507Z,99347.39
2019-06-26T20:05:08.588Z,99350.76
2019-06-26T20:08:24.000Z,99348.89
2019-06-26T20:11:38.881Z,99350.52
2019-06-26T20:14:53.526Z,99352.04
2019-06-26T20:18:09.882Z,99362.05
2019-06-26T20:21:24.665Z,99361.50
2019-06-26T20:24:44.397Z,99380.73
2019-06-26T20:27:57.459Z,99362.08
2019-06-26T20:31:12.336Z,99362.67
2019-06-26T20:34:28.331Z,99366.11
2019-06-26T20:37:45.103Z,99367.02
2019-06-26T20:41:01.674Z,99366.35
2019-06-26T20:44:16.704Z,99367.41
2019-06-26T20:47:31.480Z,99367.41
2019-06-26T20:50:47.674Z,99385.84
2019-06-26T20:54:02.510Z,99390.49
2019-06-26T20:57:19.684Z,99388.66
2019-06-26T21:00:34.413Z,99388.66
2019-06-26T21:03:50.511Z,99404.85
2019-06-26T21:07:05.978Z,99399.82
2019-06-26T21:10:22.036Z,99404.11
2019-06-26T21:16:56.328Z,99414.03
2019-06-26T21:20:11.469Z,99416.30
2019-06-26T21:23:27.094Z,99422.28
2019-06-26T21:26:42.039Z,99418.66
2019-06-26T21:29:57.131Z,99419.42
2019-06-26T21:33:12.822Z,99419.59
2019-06-26T21:36:28.855Z,99423.32
2019-06-26T21:39:44.079Z,99426.59
2019-06-26T21:43:01.522Z,99429.16
2019-06-26T21:46:17.489Z,99434.70
2019-06-26T21:49:33.290Z,99436.71
2019-06-26T21:52:48.906Z,99442.21
2019-06-26T21:56:04.185Z,99442.97
2019-06-26T21:59:19.103Z,99441.91
2019-06-26T22:02:34.778Z,99443.09
2019-06-26T22:05:50.061Z,99443.03
2019-06-26T22:09:06.781Z,99444.63
2019-06-26T22:12:22.184Z,99450.55
2019-06-26T22:15:37.916Z,99449.50
2019-06-26T22:18:53.601Z,99458.17
2019-06-26T22:22:08.635Z,99454.42
2019-06-26T22:25:23.619Z,99454.20
2019-06-26T22:28:38.450Z,99460.21
2019-06-26T22:31:53.489Z,99460.94
2019-06-26T22:35:09.221Z,99454.63
2019-06-26T22:38:24.368Z,99457.17
2019-06-26T22:41:39.426Z,99462.29
2019-06-26T22:44:56.365Z,99466.45
2019-06-26T22:48:11.488Z,99471.62
2019-06-26T22:51:27.532Z,99468.31
2019-06-26T22:54:42.924Z,99470.37
2019-06-26T22:57:57.938Z,99465.83
2019-06-26T23:01:13.146Z,99468.19
2019-06-26T23:04:28.791Z,99467.90
2019-06-26T23:07:44.845Z,99474.59
2019-06-26T23:11:00.021Z,99470.88
2019-06-26T23:14:15.489Z,99473.34
2019-06-26T23:17:32.188Z,99472.22
2019-06-26T23:20:46.894Z,99466.91
2019-06-26T23:24:01.995Z,99473.83
2019-06-26T23:27:17.387Z,99482.42
2019-06-26T23:30:32.018Z,99480.41
2019-06-26T23:33:48.542Z,99481.41
2019-06-26T23:37:06.700Z,99484.81
2019-06-26T23:40:21.674Z,99488.66
2019-06-26T23:43:36.731Z,99490.59
2019-06-26T23:46:51.526Z,99495.24
2019-06-26T23:50:07.191Z,99499.97
2019-06-26T23:53:22.470Z,99500.23
2019-06-26T23:56:40.610Z,99512.28
2019-06-26T23:59:55.433Z,99508.22
